Time;durP1;ratioP1;P1;durP2;ratioP2;P2;SDS_P1;SDS_P2;PMS_P1;PMS_P2;Temp;Humidity;BMP_temperature;BMP_pressure;BME280_temperature;BME280_humidity;BME280_pressure;Samples;Min_cycle;Max_cycle;Signal;HPM_P1;HPM_P2
2023/01/23 00:01:43;;;;;;;;;;;;;;;;;;4995851;28;19940;-88
2023/01/23 00:04:09;;;;;;;;;;;;;;;;;;4995586;28;20584;-89
2023/01/23 00:06:34;;;;;;;;;;;;;;;;;;4995833;28;20308;-88
2023/01/23 00:09:00;;;;;;;;;;;;;;;;;;4995701;28;19947;-88
2023/01/23 00:11:27;;;;;;;;;;;;;;;;;;4995398;28;19933;-88
2023/01/23 00:13:53;;;;;;;;;;;;;;;;;;4995290;28;19976;-88
2023/01/23 00:16:19;;;;;;;;;;;;;;;;;;4995554;28;19972;-88
2023/01/23 00:18:45;;;;;;;;;;;;;;;;;;4995472;28;19921;-88
2023/01/23 00:21:11;;;;;;;;;;;;;;;;;;4995522;28;20407;-88
2023/01/23 00:23:36;;;;;;;;;;;;;;;;;;4979078;28;20381;-89
2023/01/23 00:26:02;;;;;;;;;;;;;;;;;;4995209;28;20368;-88
2023/01/23 00:28:28;;;;;;;;;;;;;;;;;;4994949;28;19926;-88
2023/01/23 00:30:54;;;;;;;;;;;;;;;;;;4978953;28;19925;-88
2023/01/23 00:33:20;;;;;;;;;;;;;;;;;;4995608;28;19921;-88
2023/01/23 00:35:46;;;;;;;;;;;;;;;;;;4979033;28;19922;-88
2023/01/23 00:38:12;;;;;;;;;;;;;;;;;;4994953;28;19931;-88
2023/01/23 00:40:38;;;;;;;;;;;;;;;;;;4995081;28;19928;-88
2023/01/23 00:43:04;;;;;;;;;;;;;;;;;;4978795;28;20219;-88
2023/01/23 00:45:29;;;;;;;;;;;;;;;;;;4978614;28;19925;-88
2023/01/23 00:47:55;;;;;;;;;;;;;;;;;;4994954;28;19922;-88
2023/01/23 00:50:21;;;;;;;;;;;;;;;;;;4978805;28;19944;-88
2023/01/23 00:52:47;;;;;;;;;;;;;;;;;;4978837;28;20329;-88
2023/01/23 00:55:13;;;;;;;;;;;;;;;;;;4978517;28;19973;-88
2023/01/23 00:57:39;;;;;;;;;;;;;;;;;;4978193;28;19926;-88
2023/01/23 01:00:05;;;;;;;;;;;;;;;;;;4994661;28;19944;-88
2023/01/23 01:02:31;;;;;;;;;;;;;;;;;;4994610;28;19928;-87
2023/01/23 01:04:57;;;;;;;;;;;;;;;;;;4994768;28;19936;-88
2023/01/23 01:07:23;;;;;;;;;;;;;;;;;;4994646;28;19940;-87
2023/01/23 01:09:49;;;;;;;;;;;;;;;;;;4994837;28;19929;-88
2023/01/23 01:12:15;;;;;;;;;;;;;;;;;;4994478;28;19922;-87
2023/01/23 01:14:41;;;;;;;;;;;;;;;;;;4994675;28;19921;-88
2023/01/23 01:17:07;;;;;;;;;;;;;;;;;;4994460;28;19927;-88
2023/01/23 01:19:33;;;;;;;;;;;;;;;;;;4994398;28;20024;-89
2023/01/23 01:21:58;;;;;;;;;;;;;;;;;;4994083;28;19929;-89
2023/01/23 01:24:25;;;;;;;;;;;;;;;;;;4994597;28;19975;-89
2023/01/23 01:26:51;;;;;;;;;;;;;;;;;;4994697;28;19932;-88
2023/01/23 01:29:17;;;;;;;;;;;;;;;;;;4994214;28;20005;-88
2023/01/23 01:31:43;;;;;;;;;;;;;;;;;;4994150;28;20339;-88
2023/01/23 01:34:09;;;;;;;;;;;;;;;;;;4994296;28;19964;-88
2023/01/23 01:36:34;;;;;;;;;;;;;;;;;;4994156;28;19971;-89
2023/01/23 01:39:00;;;;;;;;;;;;;;;;;;4994225;28;20017;-89
2023/01/23 01:41:26;;;;;;;;;;;;;;;;;;4978099;28;19925;-88
2023/01/23 01:43:55;;;;;;;;;;;;;;;;;;4994505;28;19930;-87
2023/01/23 01:46:21;;;;;;;;;;;;;;;;;;4978793;28;19922;-90
2023/01/23 01:48:47;;;;;;;;;;;;;;;;;;4994236;28;20387;-87
2023/01/23 01:51:13;;;;;;;;;;;;;;;;;;4977942;28;19980;-88
2023/01/23 01:53:39;;;;;;;;;;;;;;;;;;4994108;28;20027;-88
2023/01/23 01:56:05;;;;;;;;;;;;;;;;;;4994109;28;20344;-88
2023/01/23 01:58:31;;;;;;;;;;;;;;;;;;4995781;28;19929;-88
2023/01/23 02:00:57;;;;;;;;;;;;;;;;;;4998331;28;19925;-88
2023/01/23 02:03:23;;;;;;;;;;;;;;;;;;4998135;28;19929;-88
2023/01/23 02:05:49;;;;;;;;;;;;;;;;;;4981896;28;19921;-88
2023/01/23 02:08:15;;;;;;;;;;;;;;;;;;4997737;28;19963;-88
2023/01/23 02:10:40;;;;;;;;;;;;;;;;;;4997859;28;19921;-87
2023/01/23 02:13:06;;;;;;;;;;;;;;;;;;4981548;28;19960;-88
2023/01/23 02:15:32;;;;;;;;;;;;;;;;;;4998216;28;20035;-88
2023/01/23 02:17:58;;;;;;;;;;;;;;;;;;4997890;28;19984;-88
2023/01/23 02:20:24;;;;;;;;;;;;;;;;;;4981527;28;19980;-88
2023/01/23 02:22:52;;;;;;;;;;;;;;;;;;4997520;28;19969;-88
2023/01/23 02:25:18;;;;;;;;;;;;;;;;;;4997601;28;20369;-88
2023/01/23 02:27:44;;;;;;;;;;;;;;;;;;4997534;28;19948;-88
2023/01/23 02:30:09;;;;;;;;;;;;;;;;;;4997532;28;19971;-87
2023/01/23 02:32:35;;;;;;;;;;;;;;;;;;4981056;28;20327;-88
2023/01/23 02:35:01;;;;;;;;;;;;;;;;;;4997504;28;20011;-87
2023/01/23 02:37:28;;;;;;;;;;;;;;;;;;4981054;28;20230;-87
2023/01/23 02:39:55;;;;;;;;;;;;;;;;;;4997734;28;19961;-88
2023/01/23 02:42:21;;;;;;;;;;;;;;;;;;4981334;28;19937;-88
2023/01/23 02:44:47;;;;;;;;;;;;;;;;;;4997131;28;19921;-87
2023/01/23 02:47:13;;;;;;;;;;;;;;;;;;4981123;28;20276;-88
2023/01/23 02:49:39;;;;;;;;;;;;;;;;;;4997065;28;20351;-87
2023/01/23 02:52:05;;;;;;;;;;;;;;;;;;4980875;28;19929;-88
2023/01/23 02:54:31;;;;;;;;;;;;;;;;;;4997111;28;20353;-88
2023/01/23 02:56:57;;;;;;;;;;;;;;;;;;4997037;28;19921;-87
2023/01/23 03:02:08;;;;;;;;;;;;;;;;;;4996823;28;20411;-87
2023/01/23 03:04:33;;;;;;;;;;;;;;;;;;4996819;28;19922;-87
2023/01/23 03:06:59;;;;;;;;;;;;;;;;;;4980888;28;19921;-88
2023/01/23 03:09:25;;;;;;;;;;;;;;;;;;4996775;28;19921;-87
2023/01/23 03:11:51;;;;;;;;;;;;;;;;;;4996702;28;19922;-87
2023/01/23 03:14:17;;;;;;;;;;;;;;;;;;4980273;28;19921;-88
2023/01/23 03:16:48;;;;;;;;;;;;;;;;;;4996606;28;20008;-87
2023/01/23 03:19:14;;;;;;;;;;;;;;;;;;4980387;28;19921;-87
2023/01/23 03:21:40;;;;;;;;;;;;;;;;;;4996369;28;19937;-87
2023/01/23 03:24:06;;;;;;;;;;;;;;;;;;4980326;28;20270;-87
2023/01/23 03:26:32;;;;;;;;;;;;;;;;;;4980229;28;19945;-88
2023/01/23 03:31:43;;;;;;;;;;;;;;;;;;4996170;28;19964;-87
2023/01/23 03:34:09;;;;;;;;;;;;;;;;;;4980133;28;19928;-88
2023/01/23 03:36:36;;;;;;;;;;;;;;;;;;4980195;28;19925;-88
2023/01/23 03:41:47;;;;;;;;;;;;;;;;;;4996149;28;19926;-87
2023/01/23 03:44:13;;;;;;;;;;;;;;;;;;4996295;28;19929;-87
2023/01/23 03:46:38;;;;;;;;;;;;;;;;;;4996763;28;19925;-87
2023/01/23 03:49:04;;;;;;;;;;;;;;;;;;4996326;28;19921;-88
2023/01/23 03:51:30;;;;;;;;;;;;;;;;;;4996065;28;19922;-88
2023/01/23 03:53:56;;;;;;;;;;;;;;;;;;4979854;28;20385;-88
2023/01/23 03:56:22;;;;;;;;;;;;;;;;;;4979655;28;19933;-87
2023/01/23 03:58:48;;;;;;;;;;;;;;;;;;4995587;28;19941;-88
2023/01/23 04:01:15;;;;;;;;;;;;;;;;;;4995663;28;20027;-88
2023/01/23 04:03:41;;;;;;;;;;;;;;;;;;4979851;28;19921;-88
2023/01/23 04:06:07;;;;;;;;;;;;;;;;;;4979404;28;20422;-88
2023/01/23 04:08:33;;;;;;;;;;;;;;;;;;4979456;28;19960;-87
2023/01/23 04:10:59;;;;;;;;;;;;;;;;;;4979941;28;19929;-87
2023/01/23 04:13:25;;;;;;;;;;;;;;;;;;4995733;28;20288;-88
2023/01/23 04:15:51;;;;;;;;;;;;;;;;;;4979641;28;19921;-87
2023/01/23 04:18:17;;;;;;;;;;;;;;;;;;4995397;28;19940;-87
2023/01/23 04:20:43;;;;;;;;;;;;;;;;;;4978522;28;20381;-87
2023/01/23 04:23:09;;;;;;;;;;;;;;;;;;4979351;28;19999;-88
2023/01/23 04:25:35;;;;;;;;;;;;;;;;;;4979189;28;19927;-87
2023/01/23 04:28:01;;;;;;;;;;;;;;;;;;4995285;28;20282;-87
2023/01/23 04:30:26;;;;;;;;;;;;;;;;;;4995455;28;19952;-88
2023/01/23 04:32:52;;;;;;;;;;;;;;;;;;4995427;28;19972;-88
2023/01/23 04:35:18;;;;;;;;;;;;;;;;;;4995331;28;19925;-88
2023/01/23 04:37:44;;;;;;;;;;;;;;;;;;4979181;28;20320;-88
2023/01/23 04:40:10;;;;;;;;;;;;;;;;;;4978987;28;19972;-87
2023/01/23 04:42:36;;;;;;;;;;;;;;;;;;4978530;28;19972;-87
2023/01/23 04:45:02;;;;;;;;;;;;;;;;;;4995336;28;19944;-88
2023/01/23 04:47:28;;;;;;;;;;;;;;;;;;4994817;28;19929;-87
2023/01/23 04:49:54;;;;;;;;;;;;;;;;;;4978884;28;20045;-88
2023/01/23 04:52:20;;;;;;;;;;;;;;;;;;4995390;28;20253;-88
2023/01/23 04:54:46;;;;;;;;;;;;;;;;;;4979015;28;19929;-88
2023/01/23 04:57:11;;;;;;;;;;;;;;;;;;4995016;28;19944;-88
2023/01/23 04:59:37;;;;;;;;;;;;;;;;;;4995336;28;20008;-88
2023/01/23 05:02:03;;;;;;;;;;;;;;;;;;4978564;28;19926;-88
2023/01/23 05:04:29;;;;;;;;;;;;;;;;;;4994769;28;19968;-88
2023/01/23 05:06:55;;;;;;;;;;;;;;;;;;4994720;28;19995;-88
2023/01/23 05:09:21;;;;;;;;;;;;;;;;;;4994760;28;20435;-89
2023/01/23 05:11:47;;;;;;;;;;;;;;;;;;4978484;28;20021;-88
2023/01/23 05:14:13;;;;;;;;;;;;;;;;;;4978334;28;20012;-89
2023/01/23 05:16:39;;;;;;;;;;;;;;;;;;4994590;28;19921;-88
2023/01/23 05:19:04;;;;;;;;;;;;;;;;;;4978496;28;19967;-88
2023/01/23 05:21:30;;;;;;;;;;;;;;;;;;4994234;28;20017;-88
2023/01/23 05:23:56;;;;;;;;;;;;;;;;;;4994562;28;20243;-88
2023/01/23 05:26:22;;;;;;;;;;;;;;;;;;4994770;28;19925;-88
2023/01/23 05:28:48;;;;;;;;;;;;;;;;;;4994679;28;20273;-88
2023/01/23 05:31:14;;;;;;;;;;;;;;;;;;4994469;28;19925;-88
2023/01/23 05:33:40;;;;;;;;;;;;;;;;;;4980012;28;19922;-89
2023/01/23 05:36:06;;;;;;;;;;;;;;;;;;4998779;28;20338;-89
2023/01/23 05:38:32;;;;;;;;;;;;;;;;;;4998386;28;19928;-88
2023/01/23 05:40:58;;;;;;;;;;;;;;;;;;4982102;28;19928;-88
2023/01/23 05:43:23;;;;;;;;;;;;;;;;;;4998241;28;20369;-88
2023/01/23 05:45:49;;;;;;;;;;;;;;;;;;4998580;28;19976;-88
2023/01/23 05:48:15;;;;;;;;;;;;;;;;;;4982003;28;19921;-88
2023/01/23 05:50:41;;;;;;;;;;;;;;;;;;4998196;28;19944;-89
2023/01/23 05:53:07;;;;;;;;;;;;;;;;;;4998213;28;19984;-88
2023/01/23 05:55:33;;;;;;;;;;;;;;;;;;4998065;28;19925;-88
2023/01/23 05:57:59;;;;;;;;;;;;;;;;;;4998273;28;19930;-88
2023/01/23 06:00:25;;;;;;;;;;;;;;;;;;4981872;28;19975;-88
2023/01/23 06:02:51;;;;;;;;;;;;;;;;;;4981448;28;19925;-88
2023/01/23 06:05:17;;;;;;;;;;;;;;;;;;4981607;28;20436;-88
2023/01/23 06:07:43;;;;;;;;;;;;;;;;;;4997706;28;20000;-88
2023/01/23 06:10:09;;;;;;;;;;;;;;;;;;4997992;28;19947;-87
2023/01/23 06:12:34;;;;;;;;;;;;;;;;;;4997599;28;19921;-88
2023/01/23 06:15:00;;;;;;;;;;;;;;;;;;4997725;28;19937;-88
2023/01/23 06:17:26;;;;;;;;;;;;;;;;;;4981426;28;20246;-87
2023/01/23 06:19:52;;;;;;;;;;;;;;;;;;4997447;28;20035;-87
2023/01/23 06:22:18;;;;;;;;;;;;;;;;;;4997181;28;19926;-87
2023/01/23 06:24:44;;;;;;;;;;;;;;;;;;4997394;28;20008;-87
2023/01/23 06:27:10;;;;;;;;;;;;;;;;;;4981949;28;19921;-88
2023/01/23 06:29:36;;;;;;;;;;;;;;;;;;4997665;28;19983;-87
2023/01/23 06:32:02;;;;;;;;;;;;;;;;;;4981091;28;19921;-87
2023/01/23 06:34:28;;;;;;;;;;;;;;;;;;4997369;28;20300;-87
2023/01/23 06:36:53;;;;;;;;;;;;;;;;;;4997195;28;19929;-88
2023/01/23 06:39:19;;;;;;;;;;;;;;;;;;4997392;28;19929;-88
2023/01/23 06:41:45;;;;;;;;;;;;;;;;;;4981354;28;20360;-88
2023/01/23 06:44:11;;;;;;;;;;;;;;;;;;4980617;28;19921;-88
2023/01/23 06:46:37;;;;;;;;;;;;;;;;;;4997046;28;20277;-88
2023/01/23 06:49:03;;;;;;;;;;;;;;;;;;4996969;28;20012;-88
2023/01/23 06:51:29;;;;;;;;;;;;;;;;;;4980907;28;20012;-88
2023/01/23 06:53:55;;;;;;;;;;;;;;;;;;4980731;28;20156;-88
2023/01/23 06:56:21;;;;;;;;;;;;;;;;;;4996723;28;19922;-88
2023/01/23 06:58:47;;;;;;;;;;;;;;;;;;4996820;28;19921;-88
2023/01/23 07:01:14;;;;;;;;;;;;;;;;;;4980756;28;19971;-88
2023/01/23 07:03:40;;;;;;;;;;;;;;;;;;4996951;28;20385;-88
2023/01/23 07:06:06;;;;;;;;;;;;;;;;;;4996826;28;19928;-88
2023/01/23 07:08:32;;;;;;;;;;;;;;;;;;4980297;28;19921;-88
2023/01/23 07:10:58;;;;;;;;;;;;;;;;;;4997371;28;19921;-90
2023/01/23 07:13:24;;;;;;;;;;;;;;;;;;4980658;28;19956;-88
2023/01/23 07:15:50;;;;;;;;;;;;;;;;;;4980457;28;19925;-89
2023/01/23 07:18:16;;;;;;;;;;;;;;;;;;4980462;28;20016;-93
2023/01/23 07:20:42;;;;;;;;;;;;;;;;;;4981191;28;19972;-91
2023/01/23 07:23:08;;;;;;;;;;;;;;;;;;4980574;28;20020;-91
2023/01/23 07:25:34;;;;;;;;;;;;;;;;;;4980566;28;19985;-87
2023/01/23 07:28:00;;;;;;;;;;;;;;;;;;4980058;28;19921;-88
2023/01/23 07:30:26;;;;;;;;;;;;;;;;;;4980086;28;20407;-88
2023/01/23 07:32:52;;;;;;;;;;;;;;;;;;4979976;28;19925;-88
2023/01/23 07:35:19;;;;;;;;;;;;;;;;;;4979769;28;20012;-88
2023/01/23 07:37:45;;;;;;;;;;;;;;;;;;4996163;28;19921;-88
2023/01/23 07:40:11;;;;;;;;;;;;;;;;;;4996166;28;19972;-88
2023/01/23 07:42:38;;;;;;;;;;;;;;;;;;4996070;28;20058;-88
2023/01/23 07:45:04;;;;;;;;;;;;;;;;;;4979902;28;19926;-88
2023/01/23 07:47:30;;;;;;;;;;;;;;;;;;4979931;28;19962;-88
2023/01/23 07:49:56;;;;;;;;;;;;;;;;;;4979807;28;19991;-88
2023/01/23 07:52:22;;;;;;;;;;;;;;;;;;4996240;28;20361;-87
2023/01/23 07:54:48;;;;;;;;;;;;;;;;;;4979502;28;20183;-88
2023/01/23 07:57:14;;;;;;;;;;;;;;;;;;4978778;28;19928;-88
2023/01/23 07:59:40;;;;;;;;;;;;;;;;;;4995897;28;19921;-89
2023/01/23 08:02:05;;;;;;;;;;;;;;;;;;4995498;28;20392;-89
2023/01/23 08:04:34;;;;;;;;;;;;;;;;;;4979412;28;19965;-88
2023/01/23 08:07:00;;;;;;;;;;;;;;;;;;4995395;28;20364;-92
2023/01/23 08:09:26;;;;;;;;;;;;;;;;;;4979427;28;19968;-88
2023/01/23 08:11:52;;;;;;;;;;;;;;;;;;4995492;28;19925;-89
2023/01/23 08:14:18;;;;;;;;;;;;;;;;;;4996174;28;19921;-89
2023/01/23 08:16:44;;;;;;;;;;;;;;;;;;4995706;28;20306;-89
2023/01/23 08:19:10;;;;;;;;;;;;;;;;;;4995521;28;19926;-90
2023/01/23 08:21:36;;;;;;;;;;;;;;;;;;4995443;28;19926;-90
2023/01/23 08:24:03;;;;;;;;;;;;;;;;;;4979356;28;20016;-90
2023/01/23 08:26:29;;;;;;;;;;;;;;;;;;4979631;28;19922;-92
2023/01/23 08:28:55;;;;;;;;;;;;;;;;;;4979453;28;19921;-91
2023/01/23 08:31:21;;;;;;;;;;;;;;;;;;4979749;28;19933;-92
2023/01/23 08:33:47;;;;;;;;;;;;;;;;;;4975147;28;20296;-92
2023/01/23 08:36:13;;;;;;;;;;;;;;;;;;4967604;28;20016;-92
2023/01/23 08:38:39;;;;;;;;;;;;;;;;;;4960245;28;20425;-92
2023/01/23 08:41:05;;;;;;;;;;;;;;;;;;4976408;28;20109;-92
2023/01/23 08:43:31;;;;;;;;;;;;;;;;;;4959800;28;20025;-91
2023/01/23 08:45:57;;;;;;;;;;;;;;;;;;4976297;28;20033;-92
2023/01/23 08:48:23;;;;;;;;;;;;;;;;;;4959844;28;19925;-92
2023/01/23 08:50:49;;;;;;;;;;;;;;;;;;4960012;28;19925;-91
2023/01/23 08:53:15;;;;;;;;;;;;;;;;;;4960240;28;19929;-92
2023/01/23 08:55:40;;;;;;;;;;;;;;;;;;4959971;28;19922;-92
2023/01/23 08:58:11;;;;;;;;;;;;;;;;;;4959809;28;20152;-91
2023/01/23 09:00:37;;;;;;;;;;;;;;;;;;4959539;28;19922;-91
2023/01/23 09:03:03;;;;;;;;;;;;;;;;;;4959397;28;19929;-92
2023/01/23 09:05:29;;;;;;;;;;;;;;;;;;4960044;28;20292;-91
2023/01/23 09:07:55;;;;;;;;;;;;;;;;;;4959288;28;19928;-92
2023/01/23 09:10:21;;;;;;;;;;;;;;;;;;4959409;28;20009;-92
2023/01/23 09:12:47;;;;;;;;;;;;;;;;;;4976281;28;19996;-92
2023/01/23 09:15:13;;;;;;;;;;;;;;;;;;4959845;28;19976;-91
2023/01/23 09:17:39;;;;;;;;;;;;;;;;;;4959676;28;19925;-92
2023/01/23 09:20:05;;;;;;;;;;;;;;;;;;4975996;28;19922;-91
2023/01/23 09:22:31;;;;;;;;;;;;;;;;;;4959153;28;20436;-92
2023/01/23 09:24:57;;;;;;;;;;;;;;;;;;4959237;28;19926;-92
2023/01/23 09:27:23;;;;;;;;;;;;;;;;;;4959040;28;20277;-91
2023/01/23 09:29:49;;;;;;;;;;;;;;;;;;4959926;28;20330;-92
2023/01/23 09:32:15;;;;;;;;;;;;;;;;;;4959418;28;19969;-92
2023/01/23 09:34:41;;;;;;;;;;;;;;;;;;4975163;28;19929;-90
2023/01/23 09:37:07;;;;;;;;;;;;;;;;;;4975031;28;19984;-90
2023/01/23 09:39:33;;;;;;;;;;;;;;;;;;4974983;28;20238;-90
2023/01/23 09:42:00;;;;;;;;;;;;;;;;;;4959093;28;19926;-90
2023/01/23 09:44:26;;;;;;;;;;;;;;;;;;4958957;28;19925;-90
2023/01/23 09:46:52;;;;;;;;;;;;;;;;;;4959195;28;20016;-90
2023/01/23 09:49:17;;;;;;;;;;;;;;;;;;4975128;28;19961;-89
2023/01/23 09:51:43;;;;;;;;;;;;;;;;;;4958753;28;19922;-89
2023/01/23 09:54:09;;;;;;;;;;;;;;;;;;4959009;28;19928;-89
2023/01/23 09:56:35;;;;;;;;;;;;;;;;;;4958845;28;20394;-90
2023/01/23 09:59:01;;;;;;;;;;;;;;;;;;4974946;28;19922;-89
2023/01/23 10:01:27;;;;;;;;;;;;;;;;;;4974496;28;19928;-89
2023/01/23 10:03:53;;;;;;;;;;;;;;;;;;4958833;28;20005;-89
2023/01/23 10:06:19;;;;;;;;;;;;;;;;;;4974676;28;20012;-88
2023/01/23 10:08:45;;;;;;;;;;;;;;;;;;4974706;28;20009;-89
2023/01/23 10:11:11;;;;;;;;;;;;;;;;;;4974477;28;19922;-89
2023/01/23 10:13:37;;;;;;;;;;;;;;;;;;4974713;28;19922;-89
2023/01/23 10:16:03;;;;;;;;;;;;;;;;;;4958649;28;19925;-89
2023/01/23 10:18:29;;;;;;;;;;;;;;;;;;4958299;28;19980;-88
2023/01/23 10:20:55;;;;;;;;;;;;;;;;;;4961822;28;19926;-88
2023/01/23 10:23:21;;;;;;;;;;;;;;;;;;4978137;28;19969;-91
2023/01/23 10:25:46;;;;;;;;;;;;;;;;;;4963528;28;20242;-92
2023/01/23 10:28:12;;;;;;;;;;;;;;;;;;4962336;28;19997;-91
2023/01/23 10:30:40;;;;;;;;;;;;;;;;;;4961937;28;19965;-92
2023/01/23 10:33:06;;;;;;;;;;;;;;;;;;4962086;28;19922;-93
2023/01/23 10:35:32;;;;;;;;;;;;;;;;;;4962403;28;19985;-91
2023/01/23 10:37:57;;;;;;;;;;;;;;;;;;4962439;28;20079;-91
2023/01/23 10:43:08;;;;;;;;;;;;;;;;;;4978412;28;20369;-91
2023/01/23 10:45:34;;;;;;;;;;;;;;;;;;4962118;28;19928;-90
2023/01/23 10:48:00;;;;;;;;;;;;;;;;;;4961661;28;19921;-91
2023/01/23 10:50:26;;;;;;;;;;;;;;;;;;4961884;28;19922;-91
2023/01/23 10:52:52;;;;;;;;;;;;;;;;;;4961995;28;20069;-94
2023/01/23 10:55:18;;;;;;;;;;;;;;;;;;4963444;28;19926;-91
2023/01/23 10:57:44;;;;;;;;;;;;;;;;;;4978642;28;19926;-91
2023/01/23 11:00:11;;;;;;;;;;;;;;;;;;4964972;28;20277;-94
2023/01/23 11:02:39;;;;;;;;;;;;;;;;;;4978827;28;19925;-89
2023/01/23 11:05:05;;;;;;;;;;;;;;;;;;4961882;28;19921;-89
2023/01/23 11:07:31;;;;;;;;;;;;;;;;;;4977495;28;19928;-90
2023/01/23 11:09:57;;;;;;;;;;;;;;;;;;4961563;28;19926;-89
2023/01/23 11:12:23;;;;;;;;;;;;;;;;;;4968093;28;20349;-94
2023/01/23 11:14:49;;;;;;;;;;;;;;;;;;4962590;28;19922;-91
2023/01/23 11:17:15;;;;;;;;;;;;;;;;;;4961718;28;20396;-92
2023/01/23 11:19:41;;;;;;;;;;;;;;;;;;4977773;28;20031;-92
2023/01/23 11:22:07;;;;;;;;;;;;;;;;;;4961482;28;20344;-92
2023/01/23 11:24:33;;;;;;;;;;;;;;;;;;4978563;28;20109;-92
2023/01/23 11:26:59;;;;;;;;;;;;;;;;;;4963693;28;20020;-93
2023/01/23 11:29:24;;;;;;;;;;;;;;;;;;4961333;28;20361;-92
2023/01/23 11:31:50;;;;;;;;;;;;;;;;;;4959931;28;19922;-91
2023/01/23 11:34:16;;;;;;;;;;;;;;;;;;4961424;28;20017;-91
2023/01/23 11:36:42;;;;;;;;;;;;;;;;;;4961501;28;19965;-91
2023/01/23 11:39:12;;;;;;;;;;;;;;;;;;4976711;28;20309;-91
2023/01/23 11:41:38;;;;;;;;;;;;;;;;;;4961385;28;19930;-92
2023/01/23 11:44:03;;;;;;;;;;;;;;;;;;4976807;28;19940;-90
2023/01/23 11:46:29;;;;;;;;;;;;;;;;;;4961318;28;19980;-91
2023/01/23 11:48:55;;;;;;;;;;;;;;;;;;4976823;28;19929;-91
2023/01/23 11:51:21;;;;;;;;;;;;;;;;;;4977132;28;19945;-91
2023/01/23 11:53:47;;;;;;;;;;;;;;;;;;4960800;28;19922;-92
2023/01/23 11:56:13;;;;;;;;;;;;;;;;;;4976895;28;20346;-92
2023/01/23 11:58:39;;;;;;;;;;;;;;;;;;4960934;28;20052;-91
2023/01/23 12:01:05;;;;;;;;;;;;;;;;;;4960977;28;20048;-91
2023/01/23 12:03:31;;;;;;;;;;;;;;;;;;4960806;28;19973;-92
2023/01/23 12:05:57;;;;;;;;;;;;;;;;;;4960741;28;20158;-92
2023/01/23 12:08:23;;;;;;;;;;;;;;;;;;4960798;28;20000;-90
2023/01/23 12:10:49;;;;;;;;;;;;;;;;;;4960845;28;19972;-92
2023/01/23 12:13:15;;;;;;;;;;;;;;;;;;4977269;28;19921;-92
2023/01/23 12:15:41;;;;;;;;;;;;;;;;;;4960545;28;19929;-91
2023/01/23 12:18:07;;;;;;;;;;;;;;;;;;4960335;28;19944;-91
2023/01/23 12:20:33;;;;;;;;;;;;;;;;;;4959953;28;20365;-91
2023/01/23 12:22:59;;;;;;;;;;;;;;;;;;4959950;28;19926;-92
2023/01/23 12:25:24;;;;;;;;;;;;;;;;;;4976735;28;19929;-91
2023/01/23 12:27:56;;;;;;;;;;;;;;;;;;4960767;28;19928;-92
2023/01/23 12:30:22;;;;;;;;;;;;;;;;;;4960695;28;19925;-92
2023/01/23 12:32:48;;;;;;;;;;;;;;;;;;4960554;28;19929;-91
2023/01/23 12:35:14;;;;;;;;;;;;;;;;;;4976355;28;19921;-92
2023/01/23 12:37:40;;;;;;;;;;;;;;;;;;4960126;28;19974;-93
2023/01/23 12:40:06;;;;;;;;;;;;;;;;;;4960157;28;20258;-91
2023/01/23 12:42:32;;;;;;;;;;;;;;;;;;4959801;28;20356;-91
2023/01/23 12:45:00;;;;;;;;;;;;;;;;;;4959746;28;19965;-92
2023/01/23 12:47:26;;;;;;;;;;;;;;;;;;4960440;28;19926;-91
2023/01/23 12:49:52;;;;;;;;;;;;;;;;;;4959575;28;19932;-91
2023/01/23 12:52:18;;;;;;;;;;;;;;;;;;4959816;28;19925;-92
2023/01/23 12:54:44;;;;;;;;;;;;;;;;;;4960294;28;19926;-93
2023/01/23 12:57:10;;;;;;;;;;;;;;;;;;4959589;28;19921;-91
2023/01/23 12:59:36;;;;;;;;;;;;;;;;;;4959901;28;19930;-89
2023/01/23 13:02:02;;;;;;;;;;;;;;;;;;4975827;28;19969;-89
2023/01/23 13:04:28;;;;;;;;;;;;;;;;;;4959462;28;20012;-91
2023/01/23 13:06:54;;;;;;;;;;;;;;;;;;4959709;28;20075;-93
2023/01/23 13:09:20;;;;;;;;;;;;;;;;;;4959799;28;19921;-94
2023/01/23 13:11:46;;;;;;;;;;;;;;;;;;4959925;28;19922;-91
2023/01/23 13:14:12;;;;;;;;;;;;;;;;;;4959444;28;20177;-90
2023/01/23 13:16:38;;;;;;;;;;;;;;;;;;4959502;28;19922;-92
2023/01/23 13:22:01;;;;;;;;;;;;;;;;;;4975638;28;19934;-91
2023/01/23 13:27:12;;;;;;;;;;;;;;;;;;4975366;28;19930;-92
2023/01/23 13:29:37;;;;;;;;;;;;;;;;;;4959519;28;19948;-91
2023/01/23 13:32:03;;;;;;;;;;;;;;;;;;4959730;28;20012;-96
2023/01/23 13:34:31;;;;;;;;;;;;;;;;;;4959623;28;19922;-91
2023/01/23 13:36:57;;;;;;;;;;;;;;;;;;4959985;28;19948;-91
2023/01/23 13:39:23;;;;;;;;;;;;;;;;;;4959211;28;20315;-92
2023/01/23 13:41:49;;;;;;;;;;;;;;;;;;4959813;28;19925;-93
2023/01/23 13:44:18;;;;;;;;;;;;;;;;;;4959816;28;19970;-93
2023/01/23 13:46:44;;;;;;;;;;;;;;;;;;4959734;28;19922;-93
2023/01/23 13:51:54;;;;;;;;;;;;;;;;;;4977994;28;20446;-91
2023/01/23 13:57:05;;;;;;;;;;;;;;;;;;4998748;28;19937;-91
2023/01/23 13:59:31;;;;;;;;;;;;;;;;;;4981878;28;19928;-91
2023/01/23 14:07:42;;;;;;;;;;;;;;;;;;4998159;28;19921;-89
2023/01/23 14:10:08;;;;;;;;;;;;;;;;;;4998551;28;20257;-92
2023/01/23 14:12:34;;;;;;;;;;;;;;;;;;4981827;28;19932;-90
2023/01/23 14:17:52;;;;;;;;;;;;;;;;;;4961684;28;20288;-93
2023/01/23 14:20:18;;;;;;;;;;;;;;;;;;4982450;28;19928;-92
2023/01/23 14:22:46;;;;;;;;;;;;;;;;;;4964042;28;19976;-95
2023/01/23 14:25:12;;;;;;;;;;;;;;;;;;4979009;28;20246;-90
2023/01/23 14:27:38;;;;;;;;;;;;;;;;;;4978587;28;19929;-90
2023/01/23 14:30:04;;;;;;;;;;;;;;;;;;4962169;28;19922;-91
2023/01/23 14:32:30;;;;;;;;;;;;;;;;;;4978417;28;19984;-92
2023/01/23 14:34:56;;;;;;;;;;;;;;;;;;4979136;28;19956;-92
2023/01/23 14:37:22;;;;;;;;;;;;;;;;;;4978606;28;20008;-93
2023/01/23 14:39:48;;;;;;;;;;;;;;;;;;4979287;28;19921;-93
2023/01/23 14:42:14;;;;;;;;;;;;;;;;;;4962462;28;19926;-93
2023/01/23 14:44:40;;;;;;;;;;;;;;;;;;4962618;28;19922;-93
2023/01/23 14:47:07;;;;;;;;;;;;;;;;;;4963053;28;19928;-92
2023/01/23 14:49:32;;;;;;;;;;;;;;;;;;4962995;28;19925;-93
2023/01/23 14:51:58;;;;;;;;;;;;;;;;;;4962214;28;19922;-93
2023/01/23 14:54:25;;;;;;;;;;;;;;;;;;5011109;28;19996;-93
2023/01/23 14:56:51;;;;;;;;;;;;;;;;;;4962363;28;19925;-94
2023/01/23 14:59:17;;;;;;;;;;;;;;;;;;4978276;28;20303;-94
2023/01/23 15:01:43;;;;;;;;;;;;;;;;;;4962581;28;20260;-92
2023/01/23 15:04:09;;;;;;;;;;;;;;;;;;4962477;28;20329;-93
2023/01/23 15:09:40;;;;;;;;;;;;;;;;;;4978957;28;19922;-96
2023/01/23 15:15:37;;;;;;;;;;;;;;;;;;4939633;28;19998;-96
2023/01/23 15:17:46;;;;;;;;;;;;;;;;;;4969410;28;19922;-94
2023/01/23 15:20:23;;;;;;;;;;;;;;;;;;4961918;28;19929;-96
2023/01/23 15:23:07;;;;;;;;;;;;;;;;;;4963589;28;20119;-96
2023/01/23 15:28:39;;;;;;;;;;;;;;;;;;4989436;28;19925;-96
2023/01/23 15:31:13;;;;;;;;;;;;;;;;;;4966819;28;20005;-95
2023/01/23 15:33:44;;;;;;;;;;;;;;;;;;4967445;28;20372;-94
2023/01/23 16:15:57;;;;;;;;;;;;;;;;;;;;;
2023/01/23 16:18:26;;;;;;;;;;;;;;;;;;4996820;28;19926;-93
2023/01/23 16:20:59;;;;;;;;;;;;;;;;;;4980776;28;19968;-92
2023/01/23 16:40:35;;;;;;;;;;;;;;;;;;5393165;23;20385;-94
2023/01/23 16:50:09;;;;;;;;;;;;;;;;;;5024372;28;19924;-95
2023/01/23 16:55:15;;;;;;;;;;;;;;;;;;;;;
2023/01/23 17:03:04;;;;;;;;;;;;;;;;;;5803989;23;19930;-95
2023/01/23 17:05:33;;;;;;;;;;;;;;;;;;4979880;28;19968;-90
2023/01/23 17:08:07;;;;;;;;;;;;;;;;;;4996764;28;19921;-94
2023/01/23 17:10:41;;;;;;;;;;;;;;;;;;4981224;28;19965;-93
2023/01/23 17:13:07;;;;;;;;;;;;;;;;;;4979621;28;20291;-94
2023/01/23 17:15:33;;;;;;;;;;;;;;;;;;4979839;28;19937;-93
2023/01/23 17:18:01;;;;;;;;;;;;;;;;;;4979788;28;19928;-93
2023/01/23 17:23:37;;;;;;;;;;;;;;;;;;;;;
2023/01/23 17:46:53;;;;;;;;;;;;;;;;;;5968024;23;20282;-92
2023/01/23 17:49:25;;;;;;;;;;;;;;;;;;4980761;28;19922;-90
2023/01/23 17:51:51;;;;;;;;;;;;;;;;;;4979712;28;20282;-91
2023/01/23 17:54:17;;;;;;;;;;;;;;;;;;4978980;28;20008;-89
2023/01/23 17:56:43;;;;;;;;;;;;;;;;;;4978403;28;19977;-93
2023/01/23 17:59:09;;;;;;;;;;;;;;;;;;4979154;28;19921;-93
2023/01/23 18:01:35;;;;;;;;;;;;;;;;;;4979991;28;20361;-92
2023/01/23 18:04:04;;;;;;;;;;;;;;;;;;4979456;28;20440;-94
2023/01/23 18:06:37;;;;;;;;;;;;;;;;;;4979293;28;19921;-93
2023/01/23 18:09:05;;;;;;;;;;;;;;;;;;4978981;28;20011;-95
2023/01/23 18:11:31;;;;;;;;;;;;;;;;;;4979078;28;19922;-94
2023/01/23 18:13:58;;;;;;;;;;;;;;;;;;4979201;28;19987;-94
2023/01/23 18:16:24;;;;;;;;;;;;;;;;;;4979777;28;19926;-95
2023/01/23 18:18:51;;;;;;;;;;;;;;;;;;4996469;28;19938;-94
2023/01/23 18:21:26;;;;;;;;;;;;;;;;;;4983110;28;19971;-96
2023/01/23 18:23:52;;;;;;;;;;;;;;;;;;4996603;28;19926;-91
2023/01/23 18:26:18;;;;;;;;;;;;;;;;;;4994565;28;20020;-94
2023/01/23 18:28:44;;;;;;;;;;;;;;;;;;4978243;28;20344;-91
2023/01/23 18:31:10;;;;;;;;;;;;;;;;;;4994796;28;19928;-91
2023/01/23 18:33:36;;;;;;;;;;;;;;;;;;4979014;28;19971;-92
2023/01/23 18:36:02;;;;;;;;;;;;;;;;;;4978910;28;19922;-95
2023/01/23 18:38:28;;;;;;;;;;;;;;;;;;4994992;28;19932;-94
2023/01/23 18:40:53;;;;;;;;;;;;;;;;;;4980875;28;20357;-95
2023/01/23 18:43:19;;;;;;;;;;;;;;;;;;4982245;28;19926;-90
2023/01/23 18:45:45;;;;;;;;;;;;;;;;;;4998248;28;20028;-91
2023/01/23 18:48:11;;;;;;;;;;;;;;;;;;4998003;28;19929;-92
2023/01/23 18:50:37;;;;;;;;;;;;;;;;;;4997995;28;20285;-91
2023/01/23 18:53:05;;;;;;;;;;;;;;;;;;4998109;28;20412;-93
2023/01/23 18:55:30;;;;;;;;;;;;;;;;;;4998592;28;20020;-93
2023/01/23 18:57:56;;;;;;;;;;;;;;;;;;4981974;28;19987;-94